Logo AVAMET
Benvolgut visitant, si us plau, ingressa Recuperar contrasenya

Canet lo Roig

Dades diàries. Acumulats / Últims 30 dies disponibles

Data Temperatura (°C) Humitat rel. (%) Pressió rel. (hPa) Vent (km/h) Precipitació
Mínima Mitjana Màxima Amplitud
tèrmica
Mínima Mitjana Màxima Mínima Mitjana Màxima Predom. Mitjana Ràfega
màxima
Total
(mm)
Índex-n
Mínima Mitjana Màxima Mínima Mitjana Màxima n
0 a 1
P0 max
mm 5'
Dades mensuals acumulades fins l'últim dia disponible
08/2019 17,4 20,5 23,9 25,3 26,8 30,2 34,9 17,5 32 66 91 1.009 1.015 1.020   6,4 48,3 5,0
Dades anuals acumulades fins l'últim dia disponible
2019 1,3 11,7 23,9 16,5 8,5 21,7 39,7 38,4 9 60 95 989 1.017 1.036   8,0 115,9 99,8
Últims 30 dies disponibles
17-08-2019 19,8     24,5     28,8 9,0 66 77 86 1.014 1.015 1.017 ESE 5,6 29,0 0,0
16-08-2019 19,9     24,8     29,3 9,4 49 68 83 1.015 1.018 1.019 WSW 7,2 30,6 0,0
15-08-2019 19,6     24,6     29,1 9,5 60 73 87 1.017 1.018 1.019 WSW 6,4 29,0 0,0
14-08-2019 17,4     24,2     30,2 12,8 32 55 87 1.016 1.018 1.020 WSW 7,1 30,6 0,0
13-08-2019 19,2     22,4     26,8 7,6 45 54 78 1.017 1.019 1.020 NW 11,7 43,5 0,0
12-08-2019 20,8     24,4     29,4 8,6 33 49 84 1.013 1.015 1.019 NNW 14,3 48,3 0,0
11-08-2019 23,4     25,2     28,7 5,3 69 83 91 1.012 1.014 1.016 ENE 5,8 30,6 5,0
10-08-2019 23,9     27,8     31,3 7,4 43 61 89 1.013 1.015 1.017 E 7,6 32,2 0,0
09-08-2019 22,4     28,5     34,9 12,5 42 54 63 1.010 1.012 1.013 ESE 3,9 22,5 0,0
08-08-2019 22,0     27,9     33,3 11,3 39 59 87 1.011 1.012 1.013 SE 7,1 32,2 0,0
07-08-2019 22,2     25,7     30,2 8,0 65 78 90 1.009 1.011 1.013 E 3,2 25,7 0,0
06-08-2019 20,8     25,6     31,4 10,6 62 76 88 1.009 1.012 1.014 SE 3,7 24,1 0,0
05-08-2019 19,9     25,2     30,2 10,3 51 68 83 1.012 1.014 1.016 SE 4,8 27,4 0,0
04-08-2019 19,7     24,9     31,1 11,4 49 68 81 1.013 1.014 1.015 SE 5,1 29,0 0,0
03-08-2019 18,7     25,0     31,2 12,5 48 67 84 1.013 1.015 1.016 SSW 6,8 33,8 0,0
02-08-2019 19,3     24,9     30,3 11,0 36 58 78 1.014 1.015 1.016 NE 5,0 29,0 0,0
01-08-2019 18,8     23,7     27,9 9,1 49 71 91 1.011 1.014 1.017 E 4,2 27,4 0,0
31-07-2019 19,2     22,9     26,2 7,0 41 61 84 1.014 1.017 1.019 SSE 5,9 29,0 0,0
30-07-2019 20,9     25,0     30,4 9,5 38 59 84 1.011 1.014 1.017 NNW 7,6 32,2 0,0
29-07-2019 18,2     24,6     30,1 11,9 39 58 77 1.010 1.010 1.011 SE 4,7 25,7 0,0
28-07-2019 18,6     23,2     29,2 10,6 29 50 69 1.006 1.009 1.011 NW 12,1 61,2 0,0
27-07-2019 18,9     23,7     28,9 10,0 45 65 84 1.003 1.006 1.009 NW 6,8 59,5 0,0
26-07-2019 19,9     24,4     29,1 9,2 52 68 88 1.008 1.011 1.014 E 3,4 29,0 5,8 0,70 4,40
25-07-2019 19,8     26,2     32,7 12,9 33 61 83 1.013 1.014 1.016 SE 6,0 33,8 0,0
24-07-2019 20,9     27,6     33,7 12,8 33 52 79 1.014 1.015 1.016 SE 6,1 33,8 0,0
23-07-2019 20,8     28,7     36,1 15,3 24 38 52 1.016 1.018 1.020 WSW 7,2 30,6 0,0
22-07-2019 19,7     27,1     34,3 14,6 29 50 85 1.020 1.021 1.022 SSW 6,8 33,8 0,0
21-07-2019 20,3     25,7     31,1 10,8 42 65 82 1.019 1.020 1.022 ENE 4,2 25,7 0,0
20-07-2019 19,0     25,1     30,0 11,0 41 66 86 1.015 1.016 1.019 SSE 6,1 35,4 0,0
19-07-2019 20,9     24,8     29,0 8,1 53 69 83 1.014 1.016 1.017 ESE 7,2 33,8 0,0
Últims 13 mesos disponibles
07/2019 18,2 19,9 22,7 25,4 26,2 30,9 36,1 17,9 38 60 74 1.006 1.014 1.021 SE 6,5 61,2 12,8
06/2019 9,9 15,8 21,6 21,4 19,1 26,8 39,7 29,8 24 58 77 1.008 1.015 1.022 ENE 6,6 66,0 8,6
05/2019 8,2 12,0 15,6 16,8 14,5 22,0 26,7 18,5 35 60 85 1.004 1.015 1.024 NW 8,9 78,9 14,4
04/2019 5,5 9,2 11,8 13,3 13,9 18,1 24,9 19,4 42 65 84 998 1.013 1.025 ENE 8,8 69,2 40,6
03/2019 4,6 8,2 13,6 13,3 11,4 18,8 24,6 20,0 39 54 86 1.010 1.023 1.029 NW 6,9 78,9 9,2
02/2019 1,3 5,4 11,5 10,6 8,5 16,5 23,7 22,4 35 64 83 991 1.024 1.034 NNW 6,4 115,9 1,0
01/2019 1,8 5,8 12,1 9,5 8,9 13,7 20,8 19,0 21 58 87 1.000 1.018 1.030 NW 12,7 95,0 8,2
12/2018 3,6 7,5 12,5 11,7 10,7 16,6 21,2 17,6 47 70 87 1.008 1.025 1.030 NW 5,2 93,3 10,4
11/2018 3,9 8,8 14,6 12,2 12,0 16,1 20,5 16,6 51 76 95 1.001 1.015 1.024 ENE 5,6 99,8 172,8
10/2018 6,4 12,4 15,4 16,5 11,0 21,1 26,2 19,8 39 70 95 997 1.014 1.026 NW 7,5 86,9 340,6
09/2018 13,5 17,8 21,6 22,1 21,7 27,2 31,2 17,7 50 73 87 1.013 1.019 1.030 ENE 4,5 90,1 74,6
08/2018 17,1 20,1 24,9 25,1 26,0 30,5 35,9 18,8 42 64 82 1.013 1.017 1.023 WSW 6,5 66,0 21,4
07/2018 16,9 19,6 21,7 24,9 27,5 30,2 32,3 15,4 SE 6,4 74,0 34,0
Tots els anys disponibles
2018 -0,8 12,2 24,9 16,5 5,6 21,2 35,9 36,7 NW 7,4 101,4 875,4
2017
Temperatura (°C)
Humitat relativa (%)
Velocitat del vent i ràfega màxima (km/h)
Direcció del vent (°)
Pressió (hPa)
Precipitació (mm)
Nota sobre les dades: s'avisa a l'usuari de la provisionalitat i no oficialitat d'aquestes dades
Logo AVAMET blanc
Web allotjada a Sollutia
Llicència de Creative CommonsLa web d'AVAMET i els seus continguts estan subjectes a una llicència de
Reconeixement - No Comercial - Compartir igual
Properes estacions: Altea - Club Nàutic d'Altea (Soci), Ares del Maestrat (Ajuntament Soci),      - - - - -      Últimes estacions: Catadau - Urb. Lloma Molina (Inforatge), Ontinyent - El Pilar (Soci) - - -